createdAt,value
2019-05-21T00:00:24.619Z,11.20
2019-05-21T00:02:55.198Z,11.10
2019-05-21T00:05:25.741Z,11.00
2019-05-21T00:07:56.390Z,10.90
2019-05-21T00:10:26.870Z,10.90
2019-05-21T00:12:57.250Z,10.80
2019-05-21T00:15:27.785Z,10.70
2019-05-21T00:17:58.208Z,10.70
2019-05-21T00:20:28.474Z,10.70
2019-05-21T00:22:58.822Z,10.60
2019-05-21T00:25:29.413Z,10.50
2019-05-21T00:28:14.458Z,10.50
2019-05-21T00:33:30.404Z,10.60
2019-05-21T00:36:11.480Z,10.60
2019-05-21T00:38:52.659Z,10.60
2019-05-21T00:41:33.789Z,10.50
2019-05-21T00:44:04.420Z,10.60
2019-05-21T00:46:34.995Z,10.50
2019-05-21T00:49:05.542Z,10.50
2019-05-21T00:51:36.054Z,10.50
2019-05-21T00:54:06.676Z,10.40
2019-05-21T00:56:37.209Z,10.40
2019-05-21T00:59:08.231Z,10.20
2019-05-21T01:01:38.746Z,10.20
2019-05-21T01:04:09.516Z,10.20
2019-05-21T01:06:39.793Z,10.30
2019-05-21T01:09:10.152Z,10.20
2019-05-21T01:11:40.515Z,10.20
2019-05-21T01:14:11.116Z,10.20
2019-05-21T01:16:41.501Z,10.20
2019-05-21T01:19:11.973Z,10.20
2019-05-21T01:21:42.399Z,10.20
2019-05-21T01:24:12.878Z,10.20
2019-05-21T01:26:43.379Z,10.20
2019-05-21T01:29:13.965Z,10.20
2019-05-21T01:31:44.568Z,10.30
2019-05-21T01:34:14.984Z,10.30
2019-05-21T01:36:45.499Z,10.20
2019-05-21T01:39:15.863Z,10.10
2019-05-21T01:41:46.356Z,10.10
2019-05-21T01:44:16.840Z,10.00
2019-05-21T01:46:47.311Z,10.00
2019-05-21T01:49:17.668Z,10.00
2019-05-21T01:51:48.168Z,9.90
2019-05-21T01:54:18.613Z,9.80
2019-05-21T01:56:49.177Z,9.70
2019-05-21T02:01:49.486Z,9.60
2019-05-21T02:04:19.975Z,9.60
2019-05-21T02:06:50.371Z,9.60
2019-05-21T02:09:20.733Z,9.70
2019-05-21T02:11:51.179Z,9.70
2019-05-21T02:14:21.789Z,9.80
2019-05-21T02:16:52.318Z,9.90
2019-05-21T02:19:22.927Z,9.90
2019-05-21T02:21:53.230Z,10.00
2019-05-21T02:24:23.726Z,9.90
2019-05-21T02:26:54.304Z,9.90
2019-05-21T02:29:24.632Z,9.90
2019-05-21T02:31:55.052Z,9.90
2019-05-21T02:34:25.293Z,9.80
2019-05-21T02:36:56.206Z,9.80
2019-05-21T02:39:26.597Z,10.00
2019-05-21T02:41:56.939Z,10.00
2019-05-21T02:44:27.486Z,9.90
2019-05-21T02:46:57.825Z,9.80
2019-05-21T02:49:28.456Z,9.80
2019-05-21T02:51:58.855Z,9.70
2019-05-21T02:54:40.135Z,9.80
2019-05-21T02:56:59.543Z,9.80
2019-05-21T02:59:29.974Z,9.80
2019-05-21T03:02:04.711Z,9.80
2019-05-21T03:04:35.203Z,9.70
2019-05-21T03:07:10.429Z,9.70
2019-05-21T03:09:40.914Z,9.70
2019-05-21T03:12:11.204Z,9.60
2019-05-21T03:14:41.526Z,9.60
2019-05-21T03:17:12.147Z,9.60
2019-05-21T03:19:42.500Z,9.60
2019-05-21T03:22:12.973Z,9.70
2019-05-21T03:27:13.556Z,9.90
2019-05-21T03:29:44.292Z,9.90
2019-05-21T03:32:14.878Z,10.00
2019-05-21T03:34:45.476Z,10.10
2019-05-21T03:37:16.081Z,10.10
2019-05-21T03:39:46.662Z,10.20
2019-05-21T03:42:17.081Z,10.20
2019-05-21T03:44:59.215Z,10.30
2019-05-21T03:47:18.285Z,10.40
2019-05-21T03:49:49.124Z,10.40
2019-05-21T03:52:19.426Z,10.40
2019-05-21T03:54:49.942Z,10.50
2019-05-21T03:59:50.130Z,10.60
2019-05-21T04:02:20.692Z,10.60
2019-05-21T04:04:51.253Z,10.80
2019-05-21T04:07:21.774Z,10.90
2019-05-21T04:12:21.822Z,11.20
2019-05-21T04:17:35.818Z,11.50
2019-05-21T04:20:07.056Z,11.60
2019-05-21T04:22:39.222Z,11.70
2019-05-21T04:25:09.809Z,11.80
2019-05-21T04:27:40.180Z,12.00
2019-05-21T04:30:11.492Z,12.10
2019-05-21T04:32:41.399Z,12.00
2019-05-21T04:35:12.097Z,12.10
2019-05-21T04:37:42.578Z,12.10
2019-05-21T04:40:13.188Z,12.10
2019-05-21T04:42:43.755Z,12.10
2019-05-21T04:45:14.398Z,12.10
2019-05-21T04:47:44.891Z,12.20
2019-05-21T04:50:15.511Z,12.20
2019-05-21T04:52:45.834Z,12.20
2019-05-21T04:55:16.353Z,12.20
2019-05-21T04:57:46.718Z,12.30
2019-05-21T05:00:17.080Z,12.40
2019-05-21T05:02:47.684Z,12.50
2019-05-21T05:05:18.170Z,12.60
2019-05-21T05:07:48.990Z,12.70
2019-05-21T05:10:19.477Z,12.80
2019-05-21T05:12:49.775Z,13.00
2019-05-21T05:15:20.263Z,13.10
2019-05-21T05:17:50.826Z,13.20
2019-05-21T05:20:21.259Z,13.40
2019-05-21T05:22:51.710Z,13.60
2019-05-21T05:25:22.360Z,13.70
2019-05-21T05:27:52.962Z,13.70
2019-05-21T05:30:23.618Z,13.70
2019-05-21T05:32:54.509Z,13.80
2019-05-21T05:35:24.990Z,13.80
2019-05-21T05:37:55.499Z,13.90
2019-05-21T05:40:26.006Z,13.90
2019-05-21T05:42:56.454Z,14.00
2019-05-21T05:45:27.019Z,14.20
2019-05-21T05:47:57.514Z,14.20
2019-05-21T05:50:29.679Z,14.30
2019-05-21T05:53:00.357Z,14.30
2019-05-21T05:55:30.797Z,14.20
2019-05-21T05:58:01.265Z,14.20
2019-05-21T06:00:31.831Z,14.20
2019-05-21T06:03:02.295Z,14.30
2019-05-21T06:08:02.718Z,14.50
2019-05-21T06:10:33.282Z,14.50
2019-05-21T06:13:03.663Z,14.60
2019-05-21T06:15:34.243Z,14.70
2019-05-21T06:18:04.807Z,14.90
2019-05-21T06:20:35.339Z,15.00
2019-05-21T06:23:05.807Z,15.20
2019-05-21T06:25:36.319Z,15.40
2019-05-21T06:30:36.456Z,15.90
2019-05-21T06:33:07.800Z,15.80
2019-05-21T06:35:38.276Z,15.70
2019-05-21T06:38:17.664Z,15.80
2019-05-21T06:40:40.924Z,16.00
2019-05-21T06:43:11.210Z,16.20
2019-05-21T06:45:42.498Z,16.30
2019-05-21T06:48:13.079Z,16.60
2019-05-21T06:50:43.523Z,16.90
2019-05-21T06:53:14.459Z,17.20
2019-05-21T06:55:44.990Z,17.10
2019-05-21T06:58:15.370Z,17.10
2019-05-21T07:00:46.040Z,17.10
2019-05-21T07:03:16.860Z,17.00
2019-05-21T07:05:58.273Z,16.90
2019-05-21T07:08:32.081Z,16.80
2019-05-21T07:10:48.340Z,16.90
2019-05-21T07:13:18.738Z,17.20
2019-05-21T07:15:49.084Z,17.50
2019-05-21T07:18:19.461Z,17.90
2019-05-21T07:20:49.964Z,18.30
2019-05-21T07:23:20.479Z,18.50
2019-05-21T07:25:50.877Z,18.90
2019-05-21T07:28:21.264Z,19.40
2019-05-21T07:30:51.741Z,20.00
2019-05-21T07:33:22.161Z,19.90
2019-05-21T07:35:52.564Z,19.60
2019-05-21T07:38:23.142Z,19.60
2019-05-21T07:40:53.483Z,19.90
2019-05-21T07:43:23.830Z,19.90
2019-05-21T07:45:54.653Z,19.60
2019-05-21T07:48:25.157Z,19.80
2019-05-21T07:50:55.442Z,20.00
2019-05-21T07:53:25.841Z,19.60
2019-05-21T07:55:56.234Z,20.00
2019-05-21T07:58:26.549Z,20.10
2019-05-21T08:01:01.028Z,19.80
2019-05-21T08:03:27.753Z,19.90
2019-05-21T08:05:58.195Z,20.00
2019-05-21T08:08:28.669Z,20.20
2019-05-21T08:10:59.198Z,19.90
2019-05-21T08:13:29.459Z,20.50
2019-05-21T08:15:59.969Z,21.00
2019-05-21T08:18:30.681Z,20.90
2019-05-21T08:21:01.035Z,20.20
2019-05-21T08:23:31.534Z,20.10
2019-05-21T08:26:01.960Z,20.30
2019-05-21T08:28:32.328Z,20.30
2019-05-21T08:31:02.821Z,21.00
2019-05-21T08:33:32.976Z,21.60
2019-05-21T08:36:03.493Z,21.70
2019-05-21T08:38:34.406Z,21.40
2019-05-21T08:41:04.940Z,21.30
2019-05-21T08:43:35.712Z,21.20
2019-05-21T08:46:06.730Z,21.20
2019-05-21T08:48:37.204Z,21.10
2019-05-21T08:51:07.694Z,21.30
2019-05-21T08:53:38.288Z,21.60
2019-05-21T08:56:08.727Z,22.00
2019-05-21T08:58:39.141Z,22.10
2019-05-21T09:01:09.503Z,22.00
2019-05-21T09:03:39.993Z,22.20
2019-05-21T09:06:10.435Z,22.10
2019-05-21T09:08:40.886Z,21.90
2019-05-21T09:11:11.472Z,22.10
2019-05-21T09:13:41.802Z,22.30
2019-05-21T09:16:12.388Z,22.10
2019-05-21T09:18:42.655Z,21.80
2019-05-21T09:21:12.961Z,21.50
2019-05-21T09:23:43.216Z,21.40
2019-05-21T09:26:13.738Z,21.40
2019-05-21T09:28:44.536Z,21.50
2019-05-21T09:31:14.864Z,21.50
2019-05-21T09:33:45.154Z,21.60
2019-05-21T09:36:15.621Z,21.90
2019-05-21T09:38:45.940Z,22.40
2019-05-21T09:41:16.311Z,22.90
2019-05-21T09:43:46.776Z,22.90
2019-05-21T09:48:47.150Z,22.70
2019-05-21T09:51:20.232Z,22.40
2019-05-21T09:53:48.144Z,22.40
2019-05-21T09:56:34.330Z,22.40
2019-05-21T09:59:15.396Z,22.20
2019-05-21T10:01:48.549Z,22.30
2019-05-21T10:04:18.463Z,22.70
2019-05-21T10:06:49.022Z,23.00
2019-05-21T10:09:20.643Z,23.60
2019-05-21T10:11:51.651Z,24.40
2019-05-21T10:14:22.130Z,24.60
2019-05-21T10:16:52.998Z,24.40
2019-05-21T10:19:23.527Z,24.30
2019-05-21T10:21:56.989Z,24.00
2019-05-21T10:24:24.427Z,24.00
2019-05-21T10:26:54.906Z,24.10
2019-05-21T10:29:25.284Z,23.60
2019-05-21T10:31:55.777Z,24.20
2019-05-21T10:34:26.137Z,24.40
2019-05-21T10:36:56.519Z,24.30
2019-05-21T10:39:26.997Z,24.10
2019-05-21T10:41:57.399Z,24.30
2019-05-21T10:44:29.083Z,24.70
2019-05-21T10:49:29.243Z,25.00
2019-05-21T10:51:59.700Z,24.60
2019-05-21T10:54:30.191Z,24.30
2019-05-21T10:57:00.779Z,23.90
2019-05-21T10:59:31.222Z,23.70
2019-05-21T11:04:52.384Z,24.50
2019-05-21T11:07:23.399Z,24.70
2019-05-21T11:09:53.908Z,24.70
2019-05-21T11:12:24.483Z,24.20
2019-05-21T11:14:54.983Z,24.70
2019-05-21T11:17:25.555Z,24.50
2019-05-21T11:19:56.039Z,25.10
2019-05-21T11:22:26.882Z,25.80
2019-05-21T11:24:57.129Z,25.30
2019-05-21T11:27:27.670Z,25.50
2019-05-21T11:29:58.153Z,26.30
2019-05-21T11:32:28.727Z,26.70
2019-05-21T11:34:59.178Z,26.90
2019-05-21T11:37:29.688Z,27.40
2019-05-21T11:40:00.035Z,27.60
2019-05-21T11:42:30.502Z,27.10
2019-05-21T11:45:01.174Z,26.40
2019-05-21T11:47:31.687Z,25.80
2019-05-21T11:50:02.042Z,25.60
2019-05-21T11:52:32.456Z,25.10
2019-05-21T11:55:02.933Z,25.00
2019-05-21T11:57:33.542Z,24.10
2019-05-21T12:00:04.138Z,24.70
2019-05-21T12:02:34.550Z,25.60
2019-05-21T12:05:05.356Z,26.30
2019-05-21T12:07:35.893Z,25.90
2019-05-21T12:10:07.313Z,26.70
2019-05-21T12:12:37.807Z,26.60
2019-05-21T12:15:08.374Z,26.40
2019-05-21T12:17:38.967Z,26.20
2019-05-21T12:20:09.759Z,25.80
2019-05-21T12:25:10.340Z,25.80
2019-05-21T12:27:40.785Z,25.70
2019-05-21T12:30:11.433Z,25.70
2019-05-21T12:32:42.621Z,25.30
2019-05-21T12:35:13.199Z,25.00
2019-05-21T12:37:43.603Z,25.00
2019-05-21T12:40:14.253Z,24.70
2019-05-21T12:42:44.666Z,24.50
2019-05-21T12:45:15.217Z,24.40
2019-05-21T12:47:45.605Z,24.30
2019-05-21T12:50:16.207Z,24.00
2019-05-21T12:52:46.691Z,23.80
2019-05-21T12:55:17.226Z,23.70
2019-05-21T12:57:47.733Z,23.50
2019-05-21T13:00:18.293Z,23.40
2019-05-21T13:02:48.925Z,23.30
2019-05-21T13:05:19.250Z,23.40
2019-05-21T13:07:49.709Z,23.40
2019-05-21T13:10:20.161Z,23.30
2019-05-21T13:12:50.368Z,23.20
2019-05-21T13:15:20.945Z,23.50
2019-05-21T13:17:51.431Z,23.80
2019-05-21T13:20:22.021Z,24.30
2019-05-21T13:22:52.497Z,24.60
2019-05-21T13:25:23.067Z,25.00
2019-05-21T13:30:23.470Z,24.70
2019-05-21T13:32:54.010Z,24.80
2019-05-21T13:35:24.387Z,25.70
2019-05-21T13:37:54.868Z,27.00
2019-05-21T13:40:25.534Z,28.00
2019-05-21T13:42:56.147Z,27.70
2019-05-21T13:45:26.839Z,26.80
2019-05-21T13:47:57.210Z,26.80
2019-05-21T13:50:27.683Z,27.60
2019-05-21T13:52:58.302Z,28.20
2019-05-21T13:55:28.747Z,28.10
2019-05-21T13:57:59.393Z,29.10
2019-05-21T14:00:33.178Z,29.90
2019-05-21T14:03:03.901Z,29.70
2019-05-21T14:05:34.633Z,28.80
2019-05-21T14:10:35.336Z,26.70
2019-05-21T14:13:05.921Z,26.30
2019-05-21T14:15:36.342Z,26.10
2019-05-21T14:18:06.778Z,26.20
2019-05-21T14:20:37.097Z,26.10
2019-05-21T14:23:07.475Z,26.00
2019-05-21T14:25:37.919Z,26.10
2019-05-21T14:28:08.424Z,27.20
2019-05-21T14:30:38.845Z,28.20
2019-05-21T14:33:09.331Z,27.80
2019-05-21T14:35:39.862Z,29.20
2019-05-21T14:38:10.246Z,29.90
2019-05-21T14:40:40.634Z,29.30
2019-05-21T14:43:11.063Z,28.00
2019-05-21T14:45:42.902Z,26.50
2019-05-21T14:48:13.350Z,25.30
2019-05-21T14:50:43.641Z,24.60
2019-05-21T14:53:14.084Z,24.10
2019-05-21T14:55:44.802Z,23.70
2019-05-21T14:58:15.390Z,23.60
2019-05-21T15:00:45.769Z,23.80
2019-05-21T15:03:24.981Z,23.90
2019-05-21T15:05:46.646Z,24.00
2019-05-21T15:08:16.944Z,23.80
2019-05-21T15:10:49.256Z,23.90
2019-05-21T15:13:18.132Z,24.50
2019-05-21T15:15:48.798Z,24.90
2019-05-21T15:18:22.081Z,24.70
2019-05-21T15:20:53.833Z,24.10
2019-05-21T15:23:24.148Z,23.40
2019-05-21T15:25:54.622Z,23.00
2019-05-21T15:28:25.000Z,22.80
2019-05-21T15:30:55.466Z,22.80
2019-05-21T15:33:26.151Z,22.90
2019-05-21T15:35:56.646Z,22.80
2019-05-21T15:38:27.131Z,22.90
2019-05-21T15:41:09.817Z,23.10
2019-05-21T15:43:28.206Z,23.20
2019-05-21T15:46:00.130Z,23.30
2019-05-21T15:48:30.560Z,23.20
2019-05-21T15:51:01.147Z,22.90
2019-05-21T15:53:31.614Z,22.30
2019-05-21T15:56:01.897Z,21.40
2019-05-21T15:58:32.244Z,20.70
2019-05-21T16:01:02.581Z,19.90
2019-05-21T16:03:32.967Z,19.00
2019-05-21T16:06:03.281Z,18.20
2019-05-21T16:08:33.769Z,17.90
2019-05-21T16:11:04.397Z,17.80
2019-05-21T16:13:35.063Z,17.80
2019-05-21T16:16:05.531Z,17.60
2019-05-21T16:18:35.996Z,17.40
2019-05-21T16:21:06.444Z,17.30
2019-05-21T16:23:36.950Z,17.10
2019-05-21T16:26:07.413Z,17.00
2019-05-21T16:28:37.742Z,16.80
2019-05-21T16:33:37.908Z,16.50
2019-05-21T16:36:08.385Z,16.30
2019-05-21T16:38:38.854Z,16.20
2019-05-21T16:43:38.865Z,16.00
2019-05-21T16:48:39.770Z,15.70
2019-05-21T16:51:10.038Z,15.60
2019-05-21T16:53:40.648Z,15.50
2019-05-21T16:56:11.143Z,15.40
2019-05-21T16:58:41.599Z,15.30
2019-05-21T17:01:12.303Z,15.20
2019-05-21T17:03:42.628Z,15.20
2019-05-21T17:06:13.097Z,15.10
2019-05-21T17:08:43.771Z,15.00
2019-05-21T17:11:14.223Z,15.00
2019-05-21T17:13:44.637Z,14.90
2019-05-21T17:16:14.939Z,15.00
2019-05-21T17:18:45.441Z,15.00
2019-05-21T17:21:15.833Z,15.00
2019-05-21T17:23:46.346Z,15.00
2019-05-21T17:26:16.741Z,14.90
2019-05-21T17:31:16.779Z,15.00
2019-05-21T17:36:16.881Z,15.10
2019-05-21T17:38:47.318Z,15.10
2019-05-21T17:41:17.751Z,15.10
2019-05-21T17:46:18.108Z,15.10
2019-05-21T17:48:48.565Z,15.20
2019-05-21T17:51:18.967Z,15.30
2019-05-21T17:53:49.441Z,15.40
2019-05-21T17:56:19.909Z,15.40
2019-05-21T17:58:50.474Z,15.50
2019-05-21T18:01:20.970Z,15.50
2019-05-21T18:03:51.777Z,15.50
2019-05-21T18:06:22.446Z,15.60
2019-05-21T18:08:53.010Z,15.50
2019-05-21T18:11:23.655Z,15.50
2019-05-21T18:13:54.069Z,15.40
2019-05-21T18:16:24.587Z,15.40
2019-05-21T18:18:55.074Z,15.40
2019-05-21T18:23:55.130Z,15.30
2019-05-21T18:26:25.613Z,15.20
2019-05-21T18:28:56.238Z,15.10
2019-05-21T18:31:27.252Z,15.10
2019-05-21T18:33:57.794Z,15.10
2019-05-21T18:36:28.196Z,15.00
2019-05-21T18:38:58.751Z,14.90
2019-05-21T18:41:29.234Z,14.90
2019-05-21T18:43:59.916Z,14.90
2019-05-21T18:46:30.366Z,14.90
2019-05-21T18:51:30.580Z,14.80
2019-05-21T18:54:00.932Z,14.80
2019-05-21T18:56:31.433Z,14.90
2019-05-21T18:59:02.059Z,14.90
2019-05-21T19:01:32.633Z,14.90
2019-05-21T19:06:32.977Z,14.90
2019-05-21T19:09:03.544Z,14.90
2019-05-21T19:11:34.100Z,14.90
2019-05-21T19:14:04.676Z,14.90
2019-05-21T19:16:34.926Z,15.00
2019-05-21T19:19:05.353Z,15.00
2019-05-21T19:21:35.880Z,15.00
2019-05-21T19:24:06.398Z,15.10
2019-05-21T19:26:37.053Z,15.10
2019-05-21T19:29:07.993Z,15.00
2019-05-21T19:31:38.200Z,14.90
2019-05-21T19:34:08.760Z,14.80
2019-05-21T19:36:39.398Z,14.80
2019-05-21T19:39:09.887Z,14.70
2019-05-21T19:41:40.352Z,14.70
2019-05-21T19:44:10.749Z,14.60
2019-05-21T19:46:41.382Z,14.60
2019-05-21T19:49:11.835Z,14.70
2019-05-21T19:51:42.329Z,14.70
2019-05-21T19:54:12.857Z,14.60
2019-05-21T19:56:43.488Z,14.50
2019-05-21T19:59:13.822Z,14.40
2019-05-21T20:01:44.444Z,14.30
2019-05-21T20:04:15.258Z,14.20
2019-05-21T20:06:45.919Z,14.20
2019-05-21T20:09:17.593Z,14.20
2019-05-21T20:11:48.001Z,14.20
2019-05-21T20:14:18.351Z,14.20
2019-05-21T20:16:48.817Z,14.20
2019-05-21T20:21:49.522Z,14.30
2019-05-21T20:24:20.075Z,14.30
2019-05-21T20:26:50.934Z,14.30
2019-05-21T20:31:51.624Z,14.40
2019-05-21T20:34:22.317Z,14.40
2019-05-21T20:36:52.870Z,14.40
2019-05-21T20:39:23.060Z,14.40
2019-05-21T20:41:54.063Z,14.40
2019-05-21T20:44:24.550Z,14.40
2019-05-21T20:46:55.297Z,14.30
2019-05-21T20:49:25.742Z,14.30
2019-05-21T20:51:56.366Z,14.30
2019-05-21T20:54:27.013Z,14.40
2019-05-21T20:56:57.570Z,14.50
2019-05-21T20:59:28.252Z,14.50
2019-05-21T21:01:59.276Z,14.50
2019-05-21T21:04:29.979Z,14.60
2019-05-21T21:07:00.561Z,14.50
2019-05-21T21:09:31.214Z,14.50
2019-05-21T21:12:01.856Z,14.50
2019-05-21T21:14:32.258Z,14.50
2019-05-21T21:17:02.871Z,14.40
2019-05-21T21:19:33.585Z,14.40
2019-05-21T21:22:04.020Z,14.40
2019-05-21T21:24:34.655Z,14.30
2019-05-21T21:27:05.461Z,14.30
2019-05-21T21:29:36.295Z,14.30
2019-05-21T21:32:06.967Z,14.20
2019-05-21T21:34:37.920Z,14.20
2019-05-21T21:37:08.617Z,14.20
2019-05-21T21:39:39.707Z,14.10
2019-05-21T21:42:10.266Z,14.10
2019-05-21T21:44:40.671Z,14.10
2019-05-21T21:47:10.962Z,14.10
2019-05-21T21:49:41.433Z,14.00
2019-05-21T21:52:11.799Z,14.10
2019-05-21T21:54:42.206Z,14.00
2019-05-21T21:57:13.071Z,14.00
2019-05-21T21:59:43.399Z,14.00
2019-05-21T22:02:18.770Z,14.00
2019-05-21T22:04:49.248Z,14.00
2019-05-21T22:07:19.556Z,14.00
2019-05-21T22:09:49.875Z,14.00
2019-05-21T22:12:20.340Z,14.00
2019-05-21T22:14:52.852Z,13.90
2019-05-21T22:17:23.135Z,13.90
2019-05-21T22:19:53.394Z,13.80
2019-05-21T22:22:23.649Z,13.80
2019-05-21T22:24:53.971Z,13.80
2019-05-21T22:27:24.520Z,13.90
2019-05-21T22:29:54.803Z,14.00
2019-05-21T22:32:25.201Z,14.10
2019-05-21T22:34:55.662Z,14.10
2019-05-21T22:37:26.033Z,14.10
2019-05-21T22:39:56.225Z,14.10
2019-05-21T22:42:26.665Z,14.20
2019-05-21T22:47:26.707Z,14.20
2019-05-21T22:49:56.919Z,14.20
2019-05-21T22:54:56.554Z,14.20
2019-05-21T22:57:26.806Z,14.20
2019-05-21T22:59:57.016Z,14.20
2019-05-21T23:02:29.298Z,14.30
2019-05-21T23:04:59.939Z,14.40
2019-05-21T23:07:30.503Z,14.40
2019-05-21T23:10:00.878Z,14.40
2019-05-21T23:12:31.145Z,14.40
2019-05-21T23:15:01.379Z,14.40
2019-05-21T23:17:31.612Z,14.40
2019-05-21T23:20:02.047Z,14.40
2019-05-21T23:22:32.742Z,14.40
2019-05-21T23:25:02.877Z,14.40
2019-05-21T23:28:36.630Z,14.40
2019-05-21T23:31:07.264Z,14.40
2019-05-21T23:33:37.746Z,14.40
2019-05-21T23:36:08.182Z,14.50
2019-05-21T23:38:38.408Z,14.50
2019-05-21T23:41:08.883Z,14.50
2019-05-21T23:43:39.172Z,14.50
2019-05-21T23:46:09.732Z,14.50
2019-05-21T23:48:40.094Z,14.60
2019-05-21T23:51:10.350Z,14.70
2019-05-21T23:53:40.654Z,14.70
2019-05-21T23:56:10.797Z,14.80
2019-05-21T23:58:40.931Z,14.80
